Time;durP1;ratioP1;P1;durP2;ratioP2;P2;SDS_P1;SDS_P2;PMS_P1;PMS_P2;Temp;Humidity;BMP_temperature;BMP_pressure;BME280_temperature;BME280_humidity;BME280_pressure;Samples;Min_cycle;Max_cycle;Signal;HPM_P1;HPM_P2
2022/05/09 00:01:31;;;;;;;13.07;4.78;;;;;;;13.66;50.97;102637.97;5007527;28;20477;-62
2022/05/09 00:03:57;;;;;;;12.43;4.57;;;;;;;13.62;50.83;102639.50;5012346;28;20489;-62
2022/05/09 00:06:23;;;;;;;13.23;4.60;;;;;;;13.60;50.70;102642.53;5008395;28;20128;-61
2022/05/09 00:08:51;;;;;;;13.60;4.65;;;;;;;13.56;50.91;102629.25;5010119;28;20104;-62
2022/05/09 00:11:17;;;;;;;13.43;5.22;;;;;;;13.49;50.81;102630.19;5009654;28;20022;-62
2022/05/09 00:13:43;;;;;;;12.10;4.30;;;;;;;13.53;50.76;102629.72;5009071;28;20034;-62
2022/05/09 00:16:08;;;;;;;11.10;4.10;;;;;;;13.43;50.73;102633.88;5010060;28;20050;-62
2022/05/09 00:18:34;;;;;;;11.45;4.30;;;;;;;13.43;50.70;102628.28;5009367;28;20109;-62
2022/05/09 00:20:59;;;;;;;12.30;4.35;;;;;;;13.37;50.26;102628.38;5013684;28;20508;-63
2022/05/09 00:23:24;;;;;;;14.18;4.32;;;;;;;13.35;50.68;102622.16;5016145;28;20413;-63
2022/05/09 00:25:50;;;;;;;10.05;3.88;;;;;;;13.31;50.43;102620.91;5011261;28;20038;-63
2022/05/09 00:28:15;;;;;;;9.85;4.00;;;;;;;13.21;50.81;102633.41;5009725;28;20532;-62
2022/05/09 00:30:41;;;;;;;15.10;4.07;;;;;;;13.18;50.90;102619.91;5009549;28;20448;-63
2022/05/09 00:33:06;;;;;;;10.82;4.40;;;;;;;13.22;50.69;102623.09;5008764;28;20089;-63
2022/05/09 00:35:32;;;;;;;9.40;3.95;;;;;;;13.19;51.00;102620.78;5008031;28;20493;-63
2022/05/09 00:37:57;;;;;;;11.55;4.38;;;;;;;13.12;50.73;102620.81;5010435;28;20109;-63
2022/05/09 00:40:23;;;;;;;8.50;4.28;;;;;;;13.09;50.88;102617.66;5010630;28;20022;-63
2022/05/09 00:42:55;;;;;;;8.77;3.90;;;;;;;13.07;51.44;102614.22;5007901;28;20061;-62
2022/05/09 00:45:25;;;;;;;10.25;4.07;;;;;;;13.03;51.06;102616.63;5011809;28;20030;-62
2022/05/09 00:47:50;;;;;;;12.25;4.30;;;;;;;13.02;51.21;102624.13;5009498;28;20040;-63
2022/05/09 00:50:24;;;;;;;10.05;4.30;;;;;;;12.97;51.28;102623.97;5008604;28;20022;-62
2022/05/09 00:53:07;;;;;;;12.88;4.63;;;;;;;13.06;50.77;102626.47;5010496;28;20044;-62
2022/05/09 00:55:40;;;;;;;11.68;4.50;;;;;;;12.97;51.26;102614.75;5010737;28;20030;-62
2022/05/09 00:58:28;;;;;;;8.02;3.67;;;;;;;13.08;51.03;102615.94;5006868;28;20537;-62
2022/05/09 01:00:55;;;;;;;11.55;4.30;;;;;;;12.89;51.28;102618.66;5012154;28;20081;-62
2022/05/09 01:03:43;;;;;;;12.38;4.90;;;;;;;12.90;51.29;102617.56;5010165;28;20126;-61
2022/05/09 01:06:09;;;;;;;9.25;4.47;;;;;;;12.84;51.62;102621.25;5009083;28;20080;-61
2022/05/09 01:08:35;;;;;;;8.57;4.50;;;;;;;12.83;51.52;102611.19;5011532;28;20037;-61
2022/05/09 01:11:03;;;;;;;13.68;4.32;;;;;;;12.73;51.98;102605.25;5007425;28;20080;-61
2022/05/09 01:13:32;;;;;;;9.25;4.53;;;;;;;12.76;51.74;102605.66;5010245;28;20034;-61
2022/05/09 01:15:58;;;;;;;9.30;3.80;;;;;;;12.74;51.93;102606.97;5007197;28;20104;-61
2022/05/09 01:18:24;;;;;;;9.05;4.53;;;;;;;12.73;51.75;102600.56;5007971;28;20381;-61
2022/05/09 01:20:50;;;;;;;10.40;4.00;;;;;;;12.73;51.93;102602.47;5010607;28;20030;-61
2022/05/09 01:23:16;;;;;;;9.98;4.05;;;;;;;12.61;52.06;102593.13;5009899;28;20109;-62
2022/05/09 01:25:41;;;;;;;9.82;4.50;;;;;;;12.60;52.06;102594.19;5008408;28;20052;-61
2022/05/09 01:28:07;;;;;;;11.43;4.25;;;;;;;12.55;52.23;102600.44;5010390;28;20041;-62
2022/05/09 01:30:52;;;;;;;10.52;4.15;;;;;;;12.54;52.26;102598.75;5009565;28;20037;-62
2022/05/09 01:33:41;;;;;;;8.10;4.35;;;;;;;12.53;51.95;102592.31;5011577;28;20109;-62
2022/05/09 01:36:11;;;;;;;8.60;4.78;;;;;;;12.43;52.25;102602.25;5010192;28;20034;-62
2022/05/09 01:38:56;;;;;;;8.95;4.03;;;;;;;12.47;52.32;102587.63;5010574;28;20050;-62
2022/05/09 01:41:22;;;;;;;12.80;4.50;;;;;;;12.37;52.69;102589.19;5008452;28;20354;-62
2022/05/09 01:43:50;;;;;;;14.27;4.60;;;;;;;12.30;52.75;102589.25;5014105;28;20116;-63
2022/05/09 01:46:19;;;;;;;11.25;4.72;;;;;;;12.27;52.73;102592.47;5027838;28;20053;-62
2022/05/09 01:51:40;;;;;;;11.40;4.63;;;;;;;12.24;52.68;102598.47;5001551;28;20048;-62
2022/05/09 01:54:07;;;;;;;16.05;4.93;;;;;;;12.17;53.12;102598.50;5011208;28;20127;-62
2022/05/09 01:56:34;;;;;;;10.10;4.70;;;;;;;12.07;53.34;102595.34;5009497;28;20054;-62
2022/05/09 01:59:01;;;;;;;9.40;4.43;;;;;;;12.04;53.25;102593.84;5020807;28;20029;-62
2022/05/09 02:01:33;;;;;;;9.20;4.40;;;;;;;12.01;53.57;102601.78;5007238;28;20038;-62
2022/05/09 02:03:58;;;;;;;10.20;5.25;;;;;;;12.03;53.45;102591.31;5013554;28;20037;-62
2022/05/09 02:06:23;;;;;;;10.73;4.78;;;;;;;11.96;53.43;102596.88;5014215;28;20022;-62
2022/05/09 02:08:49;;;;;;;10.50;4.82;;;;;;;11.91;53.34;102595.84;5014804;28;20060;-62
2022/05/09 02:11:15;;;;;;;13.80;4.93;;;;;;;11.89;53.65;102593.28;5012042;28;20045;-62
2022/05/09 02:13:40;;;;;;;9.48;4.60;;;;;;;11.93;53.52;102593.69;5009716;28;20080;-62
2022/05/09 02:16:06;;;;;;;8.88;4.28;;;;;;;11.88;53.60;102583.22;5012146;28;20034;-62
2022/05/09 02:18:35;;;;;;;8.15;4.78;;;;;;;11.88;53.79;102593.50;5014411;28;20811;-62
2022/05/09 02:21:01;;;;;;;10.38;4.70;;;;;;;11.80;53.85;102591.78;5013963;28;20061;-62
2022/05/09 02:23:26;;;;;;;10.45;4.65;;;;;;;11.77;53.58;102584.72;5009755;28;20077;-62
2022/05/09 02:25:52;;;;;;;9.05;4.28;;;;;;;11.73;53.79;102582.59;5014349;28;20026;-62
2022/05/09 02:28:17;;;;;;;11.20;4.35;;;;;;;11.74;53.68;102584.28;5012402;28;20485;-62
2022/05/09 02:30:43;;;;;;;11.93;4.75;;;;;;;11.68;53.65;102579.63;5011488;28;20034;-62
2022/05/09 02:33:10;;;;;;;9.90;4.45;;;;;;;11.62;53.98;102584.13;5012811;28;20095;-62
2022/05/09 02:35:36;;;;;;;11.90;4.72;;;;;;;11.69;53.89;102584.09;5011913;28;20057;-62
2022/05/09 02:38:03;;;;;;;14.50;5.00;;;;;;;11.65;54.05;102583.69;5012142;28;20950;-62
2022/05/09 02:40:29;;;;;;;13.43;4.93;;;;;;;11.65;53.93;102580.06;5012358;28;20068;-62
2022/05/09 02:42:56;;;;;;;9.88;4.68;;;;;;;11.50;53.83;102577.53;5019933;28;20053;-62
2022/05/09 02:45:21;;;;;;;12.20;4.53;;;;;;;11.55;54.04;102578.59;5020650;28;20030;-62
2022/05/09 02:47:47;;;;;;;9.35;4.95;;;;;;;11.48;54.14;102576.91;5011244;28;20032;-62
2022/05/09 02:50:14;;;;;;;15.02;4.95;;;;;;;11.41;54.26;102576.91;5011693;28;20026;-62
2022/05/09 02:52:40;;;;;;;8.77;4.28;;;;;;;11.44;53.87;102582.03;5011299;28;20042;-62
2022/05/09 02:55:08;;;;;;;9.93;4.38;;;;;;;11.40;54.27;102575.19;5011054;28;20394;-62
2022/05/09 02:57:34;;;;;;;9.98;4.60;;;;;;;11.43;54.16;102580.31;5011565;28;20045;-62
2022/05/09 03:00:00;;;;;;;9.05;4.60;;;;;;;11.35;54.29;102580.53;5013434;28;20030;-62
2022/05/09 03:02:29;;;;;;;9.90;4.60;;;;;;;11.33;54.34;102581.84;5010333;28;20038;-62
2022/05/09 03:04:54;;;;;;;11.32;4.70;;;;;;;11.30;54.59;102580.34;5009218;28;20037;-62
2022/05/09 03:07:20;;;;;;;10.13;5.03;;;;;;;11.29;54.63;102567.50;5011138;28;20026;-62
2022/05/09 03:09:47;;;;;;;11.35;4.75;;;;;;;11.21;54.96;102565.81;5011310;28;20050;-62
2022/05/09 03:12:13;;;;;;;10.45;4.63;;;;;;;11.22;55.00;102573.06;5011165;28;20034;-62
2022/05/09 03:14:39;;;;;;;12.32;5.10;;;;;;;11.24;55.09;102568.16;5010631;28;20389;-62
2022/05/09 03:17:08;;;;;;;11.40;4.85;;;;;;;11.23;55.01;102568.38;5010305;28;20037;-62
2022/05/09 03:19:34;;;;;;;11.20;4.68;;;;;;;11.24;54.84;102575.66;5011468;28;20477;-62
2022/05/09 03:21:59;;;;;;;13.05;5.05;;;;;;;11.14;55.00;102566.88;5021827;28;20044;-62
2022/05/09 03:24:25;;;;;;;10.68;4.80;;;;;;;11.13;54.93;102570.75;5031057;28;20116;-62
2022/05/09 03:26:51;;;;;;;10.18;4.75;;;;;;;11.16;55.04;102568.41;5008643;28;20080;-62
2022/05/09 03:29:18;;;;;;;11.68;5.35;;;;;;;11.13;55.16;102562.41;5012800;28;20026;-62
2022/05/09 03:31:46;;;;;;;14.68;5.35;;;;;;;11.10;55.09;102563.69;5012168;28;20076;-62
2022/05/09 03:34:12;;;;;;;8.85;4.50;;;;;;;11.07;55.11;102564.94;5010930;28;20049;-62
2022/05/09 03:36:37;;;;;;;16.00;5.38;;;;;;;11.03;55.26;102557.28;5010714;28;20505;-62
2022/05/09 03:39:03;;;;;;;10.20;5.25;;;;;;;10.98;55.57;102559.84;5010443;28;20030;-62
2022/05/09 03:41:28;;;;;;;11.88;4.85;;;;;;;11.02;55.38;102561.13;5011943;28;20108;-62
2022/05/09 03:43:53;;;;;;;10.52;4.88;;;;;;;10.96;55.41;102553.63;5007048;28;20041;-62
2022/05/09 03:46:18;;;;;;;12.95;5.57;;;;;;;10.95;55.08;102555.56;5010139;28;20572;-62
2022/05/09 03:48:44;;;;;;;10.27;4.35;;;;;;;10.97;55.25;102556.22;5011639;28;20099;-62
2022/05/09 03:51:10;;;;;;;8.75;4.72;;;;;;;10.89;55.66;102556.44;5009875;28;20071;-62
2022/05/09 03:53:35;;;;;;;11.00;5.30;;;;;;;10.89;55.52;102555.59;5019897;28;20044;-62
2022/05/09 03:56:01;;;;;;;12.73;4.85;;;;;;;10.90;55.29;102552.56;5012393;28;20030;-62
2022/05/09 03:58:26;;;;;;;16.77;5.20;;;;;;;10.86;55.65;102558.78;5012595;28;20022;-61
2022/05/09 04:00:52;;;;;;;19.08;5.45;;;;;;;10.79;55.83;102559.63;5010791;28;20073;-62
2022/05/09 04:03:17;;;;;;;11.60;4.82;;;;;;;10.78;56.13;102552.38;5009976;28;20117;-62
2022/05/09 04:05:43;;;;;;;11.07;5.43;;;;;;;10.78;56.25;102560.69;5011634;28;20127;-61
2022/05/09 04:08:11;;;;;;;11.48;5.35;;;;;;;10.75;56.40;102557.47;5011495;28;20034;-62
2022/05/09 04:10:37;;;;;;;15.38;5.38;;;;;;;10.69;56.69;102552.75;5010727;28;20026;-62
2022/05/09 04:13:04;;;;;;;12.93;5.50;;;;;;;10.77;56.32;102559.00;5010368;28;20037;-62
2022/05/09 04:18:17;;;;;;;11.15;5.60;;;;;;;10.66;56.40;102551.28;5008229;28;20040;-61
2022/05/09 04:20:43;;;;;;;11.20;5.65;;;;;;;10.66;56.33;102556.00;5010841;28;20024;-61
2022/05/09 04:23:09;;;;;;;14.20;6.20;;;;;;;10.72;56.74;102549.56;5012071;28;20125;-63
2022/05/09 04:25:35;;;;;;;15.55;5.88;;;;;;;10.74;56.67;102553.00;5008748;28;20121;-62
2022/05/09 04:28:04;;;;;;;11.90;5.47;;;;;;;10.68;56.75;102551.06;5009086;28;20045;-62
2022/05/09 04:30:31;;;;;;;12.70;5.20;;;;;;;10.70;56.69;102548.94;5009085;28;20109;-62
2022/05/09 04:32:56;;;;;;;13.75;5.95;;;;;;;10.73;56.66;102552.16;5010863;28;20421;-62
2022/05/09 04:35:22;;;;;;;14.85;5.60;;;;;;;10.74;56.80;102550.22;5010863;28;20096;-62
2022/05/09 04:37:50;;;;;;;11.70;6.40;;;;;;;10.77;56.83;102536.78;5010233;28;20040;-62
2022/05/09 04:40:17;;;;;;;14.13;5.90;;;;;;;10.75;56.99;102546.38;5009623;28;20485;-62
2022/05/09 04:42:43;;;;;;;14.77;6.38;;;;;;;10.82;56.88;102548.09;5008364;28;20048;-62
2022/05/09 04:45:10;;;;;;;14.95;6.30;;;;;;;10.89;56.83;102547.25;5008747;28;20065;-62
2022/05/09 04:47:35;;;;;;;11.77;5.40;;;;;;;10.94;56.37;102542.75;5008091;28;20026;-62
2022/05/09 04:50:00;;;;;;;12.15;5.60;;;;;;;10.96;56.38;102540.59;5010545;28;20052;-62
2022/05/09 04:52:26;;;;;;;13.43;6.25;;;;;;;10.97;56.39;102542.31;5008522;28;20030;-62
2022/05/09 04:54:52;;;;;;;12.75;5.55;;;;;;;10.92;56.63;102539.31;5007316;28;20035;-62
2022/05/09 04:57:17;;;;;;;12.65;6.35;;;;;;;10.97;56.64;102545.09;5003839;28;20076;-62
2022/05/09 04:59:42;;;;;;;15.25;5.68;;;;;;;11.02;56.60;102539.75;5003826;28;20033;-62
2022/05/09 05:02:07;;;;;;;18.20;6.00;;;;;;;11.09;56.29;102534.19;5007732;28;20018;-62
2022/05/09 05:04:33;;;;;;;13.20;6.03;;;;;;;11.12;56.49;102536.53;5009106;28;20697;-62
2022/05/09 05:06:58;;;;;;;14.18;5.97;;;;;;;11.14;56.30;102531.59;5010681;28;20034;-62
2022/05/09 05:09:23;;;;;;;14.45;6.32;;;;;;;11.13;56.48;102535.47;5009257;28;20112;-62
2022/05/09 05:11:49;;;;;;;12.85;5.78;;;;;;;11.21;56.38;102526.06;5011533;28;20469;-62
2022/05/09 05:14:14;;;;;;;17.20;6.80;;;;;;;11.19;57.10;102533.75;5010135;28;20072;-61
2022/05/09 05:19:23;;;;;;;17.95;6.78;;;;;;;11.26;56.57;102542.94;5007620;28;20056;-62
2022/05/09 05:21:49;;;;;;;17.50;7.05;;;;;;;11.21;56.66;102537.16;5009740;28;20473;-62
2022/05/09 05:24:14;;;;;;;18.85;6.35;;;;;;;11.35;55.98;102537.97;5010236;28;20052;-62
2022/05/09 05:26:40;;;;;;;20.45;7.57;;;;;;;11.30;56.54;102538.63;5008349;28;20037;-62
2022/05/09 05:29:06;;;;;;;17.85;7.07;;;;;;;11.36;56.59;102542.47;5005647;28;20022;-62
2022/05/09 05:31:31;;;;;;;18.77;6.10;;;;;;;11.35;56.55;102544.38;5010530;28;20038;-61
2022/05/09 05:33:56;;;;;;;18.75;6.75;;;;;;;11.45;56.43;102533.69;5009791;28;20037;-62
2022/05/09 05:36:22;;;;;;;20.85;6.93;;;;;;;11.46;56.19;102542.88;4999769;28;20025;-62
2022/05/09 05:38:51;;;;;;;14.32;6.57;;;;;;;11.53;56.03;102544.56;5012798;28;20034;-61
2022/05/09 05:41:20;;;;;;;20.33;7.38;;;;;;;11.52;56.41;102542.03;5011067;28;20156;-61
2022/05/09 05:43:46;;;;;;;18.73;6.68;;;;;;;11.61;56.49;102540.69;5012563;28;20363;-61
2022/05/09 05:46:12;;;;;;;15.88;6.88;;;;;;;11.61;56.28;102543.47;5014578;28;20069;-61
2022/05/09 05:48:38;;;;;;;17.48;7.45;;;;;;;11.70;56.28;102546.88;5013283;28;20101;-61
2022/05/09 05:51:03;;;;;;;21.98;6.97;;;;;;;11.83;55.64;102544.09;5008537;28;20041;-61
2022/05/09 05:53:29;;;;;;;14.75;7.10;;;;;;;11.90;55.65;102542.09;5011890;28;20026;-61
2022/05/09 05:55:54;;;;;;;16.80;6.38;;;;;;;12.00;55.33;102541.66;5011133;28;20034;-62
2022/05/09 05:58:19;;;;;;;20.13;6.78;;;;;;;12.09;55.45;102542.25;5007683;28;20612;-61
2022/05/09 06:00:45;;;;;;;15.65;6.25;;;;;;;12.20;55.00;102535.97;5002790;28;20030;-62
2022/05/09 06:03:10;;;;;;;14.95;6.28;;;;;;;12.33;54.44;102544.22;5011334;28;20077;-61
2022/05/09 06:05:36;;;;;;;11.73;6.70;;;;;;;12.41;54.60;102538.41;5008049;28;20066;-62
2022/05/09 06:08:03;;;;;;;14.95;6.60;;;;;;;12.53;53.83;102544.09;5008319;28;20033;-61
2022/05/09 06:10:30;;;;;;;13.27;6.68;;;;;;;12.58;54.26;102549.88;5010929;28;20504;-62
2022/05/09 06:12:56;;;;;;;13.48;6.88;;;;;;;12.73;53.89;102541.16;5008933;28;20030;-62
2022/05/09 06:15:34;;;;;;;12.93;6.45;;;;;;;12.70;53.30;102533.28;5020363;28;20785;-62
2022/05/09 06:18:08;;;;;;;14.77;6.28;;;;;;;12.84;53.26;102540.44;5010340;28;20032;-62
2022/05/09 06:20:36;;;;;;;14.38;6.38;;;;;;;12.90;52.93;102539.53;5001524;28;20280;-61
2022/05/09 06:23:03;;;;;;;14.80;6.32;;;;;;;13.02;52.54;102540.50;5005354;28;20034;-62
2022/05/09 06:25:31;;;;;;;14.30;6.28;;;;;;;13.05;52.74;102539.19;5001913;28;20034;-61
2022/05/09 06:28:00;;;;;;;15.32;6.90;;;;;;;13.19;52.57;102534.34;5004091;28;20053;-62
2022/05/09 06:30:27;;;;;;;14.05;6.15;;;;;;;13.33;52.31;102543.47;5003771;28;20048;-61
2022/05/09 06:32:53;;;;;;;14.02;5.93;;;;;;;13.45;51.65;102536.88;5000982;28;20044;-61
2022/05/09 06:35:20;;;;;;;18.27;6.80;;;;;;;13.56;51.22;102534.38;5000879;28;20026;-61
2022/05/09 06:37:50;;;;;;;14.80;7.18;;;;;;;13.68;51.62;102536.19;5004704;28;20133;-61
2022/05/09 06:40:17;;;;;;;13.18;6.85;;;;;;;13.75;51.48;102539.78;5006012;28;20026;-61
2022/05/09 06:42:43;;;;;;;17.33;6.95;;;;;;;13.79;50.47;102531.75;5000427;28;20030;-62
2022/05/09 06:45:10;;;;;;;13.52;6.40;;;;;;;13.86;50.61;102532.53;5000343;28;20385;-61
2022/05/09 06:47:42;;;;;;;15.82;6.80;;;;;;;13.95;50.46;102527.47;5004402;28;20029;-62
2022/05/09 06:50:08;;;;;;;15.15;6.75;;;;;;;14.02;49.73;102528.22;5004206;28;20837;-61
2022/05/09 06:52:34;;;;;;;15.13;7.00;;;;;;;14.07;49.76;102513.56;5007490;28;20044;-60
2022/05/09 06:55:03;;;;;;;12.98;6.40;;;;;;;14.19;50.49;102518.13;5001545;28;20038;-60
2022/05/09 06:57:28;;;;;;;17.35;7.03;;;;;;;14.25;49.68;102527.50;5005109;28;20092;-61
2022/05/09 06:59:54;;;;;;;13.48;6.70;;;;;;;14.37;49.56;102520.00;5008225;28;20034;-61
2022/05/09 07:02:19;;;;;;;16.73;6.50;;;;;;;14.46;49.46;102523.31;5007870;28;20055;-64
2022/05/09 07:04:44;;;;;;;18.02;7.05;;;;;;;14.50;48.93;102513.38;5003358;28;20499;-61
2022/05/09 07:07:10;;;;;;;16.67;6.55;;;;;;;14.57;48.66;102528.09;4995281;28;20037;-61
2022/05/09 07:09:35;;;;;;;17.17;7.55;;;;;;;14.68;49.11;102523.63;4999355;28;20113;-61
2022/05/09 07:12:01;;;;;;;11.18;6.22;;;;;;;14.72;48.20;102511.75;5009146;28;20037;-61
2022/05/09 07:14:26;;;;;;;15.13;7.28;;;;;;;14.82;48.77;102519.53;5005870;28;20120;-61
2022/05/09 07:16:51;;;;;;;20.08;7.32;;;;;;;14.93;48.70;102513.13;5005242;28;20034;-61
2022/05/09 07:19:17;;;;;;;15.02;7.05;;;;;;;15.01;48.83;102513.81;5005077;28;20033;-61
2022/05/09 07:21:43;;;;;;;17.13;7.28;;;;;;;15.13;48.76;102504.38;5005320;28;20021;-61
2022/05/09 07:24:08;;;;;;;15.43;7.35;;;;;;;15.29;48.55;102516.75;5011865;28;20504;-60
2022/05/09 07:26:34;;;;;;;18.23;7.03;;;;;;;15.34;47.62;102518.81;5009825;28;20026;-62
2022/05/09 07:29:00;;;;;;;15.38;6.63;;;;;;;15.41;47.64;102513.97;5009670;28;20026;-62
2022/05/09 07:31:25;;;;;;;18.67;7.75;;;;;;;15.54;47.29;102515.63;5008065;28;20397;-62
2022/05/09 07:33:51;;;;;;;19.15;6.75;;;;;;;15.60;47.22;102509.03;5010084;28;20048;-62
2022/05/09 07:36:17;;;;;;;15.98;7.15;;;;;;;15.73;47.14;102517.22;5004808;28;20022;-62
2022/05/09 07:38:42;;;;;;;15.55;6.13;;;;;;;15.84;46.76;102507.09;5001372;28;20033;-63
2022/05/09 07:41:08;;;;;;;20.33;6.75;;;;;;;15.94;47.14;102516.53;5010690;28;20398;-62
2022/05/09 07:43:33;;;;;;;13.30;6.85;;;;;;;16.03;45.94;102513.31;5008687;28;20133;-62
2022/05/09 07:45:58;;;;;;;21.38;6.70;;;;;;;16.11;45.64;102518.53;5010373;28;20034;-61
2022/05/09 07:48:26;;;;;;;14.68;6.05;;;;;;;16.25;46.14;102514.34;5005166;28;20547;-61
2022/05/09 07:50:53;;;;;;;16.02;5.35;;;;;;;16.33;45.54;102515.88;5007665;28;20065;-61
2022/05/09 07:53:24;;;;;;;15.38;6.03;;;;;;;16.39;45.62;102512.94;5009985;28;20042;-61
2022/05/09 07:55:50;;;;;;;14.68;6.20;;;;;;;16.55;45.33;102516.03;5002555;28;20034;-62
2022/05/09 07:58:15;;;;;;;10.43;6.32;;;;;;;16.62;45.23;102511.06;5002907;28;20465;-62
2022/05/09 08:00:43;;;;;;;12.90;6.20;;;;;;;16.68;44.95;102513.72;5008327;28;20112;-64
2022/05/09 08:03:14;;;;;;;13.38;6.00;;;;;;;16.79;45.06;102514.78;5006814;28;20030;-63
2022/05/09 08:05:40;;;;;;;17.10;6.68;;;;;;;16.91;44.95;102512.75;5007131;28;20128;-64
2022/05/09 08:08:06;;;;;;;14.77;6.47;;;;;;;17.05;45.52;102516.03;5007698;28;20109;-63
2022/05/09 08:10:31;;;;;;;14.43;5.90;;;;;;;17.15;45.01;102509.75;5005467;28;20034;-63
2022/05/09 08:12:58;;;;;;;16.60;6.28;;;;;;;17.25;44.63;102515.53;5003675;28;20034;-64
2022/05/09 08:15:24;;;;;;;13.32;6.05;;;;;;;17.31;44.16;102510.81;5008793;28;20026;-63
2022/05/09 08:17:50;;;;;;;13.05;6.40;;;;;;;17.40;44.07;102510.13;5004532;28;20054;-62
2022/05/09 08:20:16;;;;;;;16.83;5.97;;;;;;;17.47;43.80;102509.94;5009695;28;20030;-62
2022/05/09 08:22:44;;;;;;;12.25;4.20;;;;;;;17.77;48.39;102515.16;5008167;28;20480;-62
2022/05/09 08:25:11;;;;;;;9.30;3.97;;;;;;;18.04;47.95;102518.03;5006823;28;20045;-62
2022/05/09 08:27:36;;;;;;;15.15;4.20;;;;;;;18.20;46.21;102519.03;5005458;28;20497;-63
2022/05/09 08:30:03;;;;;;;11.93;4.53;;;;;;;18.33;45.76;102509.34;5006918;28;20105;-62
2022/05/09 08:32:29;;;;;;;13.25;5.07;;;;;;;18.39;45.06;102503.50;5006106;28;20081;-63
2022/05/09 08:34:55;;;;;;;11.88;5.00;;;;;;;18.51;44.74;102508.97;5009027;28;20061;-61
2022/05/09 08:37:21;;;;;;;14.10;5.15;;;;;;;18.61;43.92;102511.00;5002834;28;20038;-60
2022/05/09 08:39:47;;;;;;;11.35;4.32;;;;;;;18.78;44.06;102508.94;5004872;28;20080;-62
2022/05/09 08:42:18;;;;;;;10.93;4.35;;;;;;;18.86;43.87;102514.09;5004780;28;20037;-63
2022/05/09 08:45:05;;;;;;;12.23;4.68;;;;;;;18.89;43.48;102510.72;5007651;28;20030;-62
2022/05/09 08:48:07;;;;;;;14.15;4.57;;;;;;;18.99;43.79;102509.13;5002569;28;20037;-63
2022/05/09 08:50:45;;;;;;;10.77;5.00;;;;;;;19.09;42.93;102498.78;5011007;28;20053;-62
2022/05/09 08:53:22;;;;;;;15.75;4.63;;;;;;;19.11;42.33;102502.19;5007174;28;20134;-61
2022/05/09 08:55:49;;;;;;;11.77;4.47;;;;;;;19.19;41.89;102502.78;5006225;28;20041;-61
2022/05/09 08:58:38;;;;;;;10.68;4.93;;;;;;;19.16;40.40;102501.34;5005912;28;20038;-61
2022/05/09 09:01:09;;;;;;;12.20;4.80;;;;;;;19.18;40.47;102493.50;5007106;28;20607;-61
2022/05/09 09:03:40;;;;;;;11.50;4.70;;;;;;;19.23;40.01;102498.31;5008613;28;20133;-60
2022/05/09 09:06:17;;;;;;;10.00;3.60;;;;;;;19.40;41.16;102498.13;5007394;28;20402;-60
2022/05/09 09:08:51;;;;;;;7.70;3.40;;;;;;;19.55;40.96;102489.78;5007447;28;20488;-62
2022/05/09 09:11:30;;;;;;;10.52;3.35;;;;;;;19.61;40.78;102483.06;5006484;28;20026;-61
2022/05/09 09:14:07;;;;;;;14.02;5.05;;;;;;;19.59;39.97;102479.66;5013406;28;20038;-61
2022/05/09 09:17:00;;;;;;;15.18;4.00;;;;;;;19.58;39.75;102484.44;5007274;28;20077;-62
2022/05/09 09:19:50;;;;;;;11.63;4.97;;;;;;;19.48;38.77;102483.53;5017816;28;20123;-62
2022/05/09 09:22:34;;;;;;;8.52;4.18;;;;;;;19.48;39.62;102483.53;5009493;28;20033;-62
2022/05/09 09:25:02;;;;;;;10.82;4.22;;;;;;;19.58;39.03;102478.81;5012136;28;20548;-62
2022/05/09 09:27:33;;;;;;;8.95;3.80;;;;;;;19.63;39.05;102472.38;5013207;28;20034;-63
2022/05/09 09:30:10;;;;;;;9.32;3.33;;;;;;;19.77;39.93;102476.38;5012953;28;20482;-63
2022/05/09 09:32:39;;;;;;;10.68;4.47;;;;;;;19.81;38.90;102474.72;5011593;28;20046;-62
2022/05/09 09:35:14;;;;;;;10.05;4.05;;;;;;;19.91;39.08;102476.69;5013036;28;20056;-62
2022/05/09 09:37:50;;;;;;;12.50;4.43;;;;;;;19.82;38.77;102467.94;5010188;28;20033;-62
2022/05/09 09:40:16;;;;;;;8.65;3.83;;;;;;;19.96;38.45;102464.59;5007224;28;20033;-62
2022/05/09 09:42:41;;;;;;;12.35;4.60;;;;;;;20.09;38.33;102466.91;5010313;28;20088;-62
2022/05/09 09:45:35;;;;;;;12.18;3.95;;;;;;;20.06;39.56;102468.28;5013091;28;20037;-62
2022/05/09 09:48:09;;;;;;;10.27;4.10;;;;;;;20.05;38.98;102460.13;5011568;28;20041;-62
2022/05/09 09:50:36;;;;;;;9.43;4.03;;;;;;;20.17;38.49;102466.34;5012900;28;20080;-61
2022/05/09 09:53:02;;;;;;;9.27;3.42;;;;;;;20.21;38.23;102453.38;5014133;28;20073;-61
2022/05/09 09:55:29;;;;;;;11.70;4.00;;;;;;;20.21;38.51;102452.53;5002979;28;20030;-61
2022/05/09 09:57:56;;;;;;;12.85;4.30;;;;;;;20.29;38.23;102452.00;5007939;28;20042;-61
2022/05/09 10:00:24;;;;;;;10.82;3.95;;;;;;;20.27;37.88;102446.63;5014266;28;20037;-63
2022/05/09 10:02:52;;;;;;;13.18;3.50;;;;;;;20.30;38.25;102445.22;5008623;28;20092;-62
2022/05/09 10:05:20;;;;;;;11.05;4.07;;;;;;;20.34;37.77;102441.56;5006743;28;20485;-61
2022/05/09 10:07:47;;;;;;;14.98;4.28;;;;;;;20.33;36.70;102442.69;5005067;28;20034;-62
2022/05/09 10:10:25;;;;;;;10.27;4.35;;;;;;;20.34;36.90;102433.09;5002881;28;20132;-62
2022/05/09 10:12:53;;;;;;;12.05;3.63;;;;;;;20.40;36.94;102424.66;5008994;28;20034;-61
2022/05/09 10:15:34;;;;;;;11.75;3.70;;;;;;;20.48;37.95;102432.56;5008785;28;20428;-62
2022/05/09 10:18:17;;;;;;;8.05;3.08;;;;;;;20.50;36.77;102430.31;5012804;28;20040;-63
2022/05/09 10:20:44;;;;;;;9.32;3.33;;;;;;;20.59;35.82;102425.78;5007459;28;20037;-62
2022/05/09 10:26:24;;;;;;;13.15;3.80;;;;;;;20.66;36.25;102422.69;5009660;28;20497;-61
2022/05/09 10:28:54;;;;;;;9.10;3.53;;;;;;;20.59;35.00;102420.16;5008697;28;20030;-61
2022/05/09 10:31:25;;;;;;;11.63;3.17;;;;;;;20.65;34.93;102424.66;5008440;28;20088;-64
2022/05/09 10:34:16;;;;;;;9.87;2.93;;;;;;;20.72;35.96;102413.94;5011120;28;20169;-63
2022/05/09 10:37:03;;;;;;;7.97;2.90;;;;;;;20.87;35.82;102410.25;5012144;28;20307;-63
2022/05/09 10:39:42;;;;;;;5.75;2.95;;;;;;;21.00;35.78;102415.31;5006613;28;20041;-63
2022/05/09 10:42:10;;;;;;;8.07;3.42;;;;;;;21.00;33.98;102408.81;5007035;28;20393;-63
2022/05/09 10:44:50;;;;;;;8.20;3.70;;;;;;;20.97;34.56;102410.22;5010869;28;20478;-65
2022/05/09 10:47:33;;;;;;;8.60;3.22;;;;;;;21.13;34.98;102410.19;5010001;28;20094;-63
2022/05/09 10:50:20;;;;;;;7.43;3.55;;;;;;;21.23;35.22;102407.34;5006776;28;20502;-62
2022/05/09 10:53:10;;;;;;;7.47;3.33;;;;;;;21.21;35.42;102410.44;5008140;28;20116;-60
2022/05/09 10:55:57;;;;;;;8.75;3.70;;;;;;;21.21;34.79;102398.31;5011163;28;20038;-60
2022/05/09 10:58:28;;;;;;;10.85;3.28;;;;;;;21.26;34.26;102395.44;5011715;28;20034;-60
2022/05/09 11:01:20;;;;;;;8.13;3.22;;;;;;;21.33;35.01;102398.84;5001516;28;20030;-60
2022/05/09 11:03:46;;;;;;;7.97;3.40;;;;;;;21.48;34.03;102392.28;5007446;28;20029;-60
2022/05/09 11:06:26;;;;;;;8.45;3.47;;;;;;;21.52;34.81;102393.41;5005439;28;20036;-60
2022/05/09 11:09:19;;;;;;;8.95;3.03;;;;;;;21.57;34.44;102390.53;5007883;28;20037;-60
2022/05/09 11:11:55;;;;;;;9.55;3.95;;;;;;;21.69;34.78;102382.59;5002248;28;20038;-59
2022/05/09 11:14:49;;;;;;;10.75;3.70;;;;;;;21.74;35.22;102387.38;5004316;28;20450;-59
2022/05/09 11:17:43;;;;;;;12.98;4.25;;;;;;;21.77;35.19;102387.63;5006513;28;20037;-61
2022/05/09 11:20:40;;;;;;;12.70;4.10;;;;;;;21.72;34.76;102378.31;5003617;28;20071;-61
2022/05/09 11:23:50;;;;;;;9.23;3.33;;;;;;;21.77;35.20;102379.16;5007834;28;20026;-62
2022/05/09 11:26:37;;;;;;;10.05;3.40;;;;;;;21.88;35.30;102373.41;5007077;28;20474;-62
2022/05/09 11:29:22;;;;;;;5.85;3.17;;;;;;;21.86;35.27;102353.09;5006852;28;20539;-61
2022/05/09 11:32:16;;;;;;;18.40;4.40;;;;;;;21.96;35.05;102353.00;5006627;28;20089;-62
2022/05/09 11:34:54;;;;;;;7.80;3.85;;;;;;;21.96;33.85;102356.66;5007973;28;20096;-61
2022/05/09 11:37:34;;;;;;;11.13;4.20;;;;;;;21.94;33.98;102355.31;5010790;28;20065;-62
2022/05/09 11:40:14;;;;;;;10.07;4.63;;;;;;;22.10;35.08;102344.72;5004541;28;20116;-62
2022/05/09 11:45:59;;;;;;;12.95;4.28;;;;;;;22.07;34.89;102340.47;4997069;28;20049;-61